Terminal Aerodrome Forecast
Issued by NWS Jackson, MS

Home | Current Version | Previous Version | Text Only | Print | Product List | Glossary On
Versions: 1 2 3 4 5 6 7 8 9 10 11 12 13 14 15 16 17
000
FTUS44 KMEG 301135
TAFTUP
TAF
KTUP 301135Z 3012/0112 15011G20KT P6SM VCSH SCT025 OVC090
      TEMPO 3014/3018 3SM TSRA OVC025CB
     FM301800 21015G22KT P6SM -SHRA VCTS SCT025CB OVC060
     FM302300 23017G28KT P6SM VCSH BKN050
     FM010200 24010KT P6SM BKN080=

USA.gov is the U.S. government's official web portal to all federal, state and local government web resources and services.